sensor_id;sensor_type;location;lat;lon;timestamp;P1;durP1;ratioP1;P2;durP2;ratioP2
44762;SDS011;30483;49.576;6.036;2024-01-10T04:01:58;3.17;;;2.60;;
44762;SDS011;30483;49.576;6.036;2024-01-10T04:04:25;2.92;;;2.53;;
44762;SDS011;30483;49.576;6.036;2024-01-10T04:06:51;4.15;;;3.15;;
44762;SDS011;30483;49.576;6.036;2024-01-10T04:09:17;2.78;;;2.50;;
44762;SDS011;30483;49.576;6.036;2024-01-10T04:11:43;3.78;;;3.03;;
44762;SDS011;30483;49.576;6.036;2024-01-10T04:14:08;4.05;;;2.80;;
44762;SDS011;30483;49.576;6.036;2024-01-10T04:16:34;3.60;;;2.95;;
44762;SDS011;30483;49.576;6.036;2024-01-10T04:18:59;4.25;;;3.00;;
44762;SDS011;30483;49.576;6.036;2024-01-10T04:21:25;4.05;;;3.03;;
44762;SDS011;30483;49.576;6.036;2024-01-10T04:23:51;3.15;;;2.70;;
44762;SDS011;30483;49.576;6.036;2024-01-10T04:26:17;3.83;;;3.08;;
44762;SDS011;30483;49.576;6.036;2024-01-10T04:28:42;3.80;;;3.03;;
44762;SDS011;30483;49.576;6.036;2024-01-10T04:31:08;3.70;;;2.70;;
44762;SDS011;30483;49.576;6.036;2024-01-10T04:33:34;3.72;;;2.80;;
44762;SDS011;30483;49.576;6.036;2024-01-10T04:35:59;4.20;;;2.97;;
44762;SDS011;30483;49.576;6.036;2024-01-10T04:38:25;3.72;;;2.60;;
44762;SDS011;30483;49.576;6.036;2024-01-10T04:40:51;3.40;;;2.75;;
44762;SDS011;30483;49.576;6.036;2024-01-10T04:43:17;3.50;;;2.80;;
44762;SDS011;30483;49.576;6.036;2024-01-10T04:45:43;3.35;;;2.70;;
44762;SDS011;30483;49.576;6.036;2024-01-10T04:48:09;3.50;;;2.78;;
44762;SDS011;30483;49.576;6.036;2024-01-10T04:50:34;4.38;;;3.40;;
44762;SDS011;30483;49.576;6.036;2024-01-10T04:53:00;3.75;;;2.80;;
44762;SDS011;30483;49.576;6.036;2024-01-10T04:55:26;3.50;;;2.60;;
44762;SDS011;30483;49.576;6.036;2024-01-10T04:57:52;3.97;;;2.95;;
44762;SDS011;30483;49.576;6.036;2024-01-10T05:00:18;4.00;;;2.90;;
44762;SDS011;30483;49.576;6.036;2024-01-10T05:02:44;3.40;;;2.78;;
44762;SDS011;30483;49.576;6.036;2024-01-10T05:05:09;3.90;;;3.10;;
44762;SDS011;30483;49.576;6.036;2024-01-10T05:07:35;3.58;;;2.60;;
44762;SDS011;30483;49.576;6.036;2024-01-10T05:10:00;3.95;;;3.00;;
44762;SDS011;30483;49.576;6.036;2024-01-10T05:12:26;3.97;;;3.15;;
44762;SDS011;30483;49.576;6.036;2024-01-10T05:14:51;4.10;;;3.00;;
44762;SDS011;30483;49.576;6.036;2024-01-10T05:17:17;4.05;;;2.67;;
44762;SDS011;30483;49.576;6.036;2024-01-10T05:19:43;3.55;;;3.00;;
44762;SDS011;30483;49.576;6.036;2024-01-10T05:22:10;3.42;;;2.78;;
44762;SDS011;30483;49.576;6.036;2024-01-10T05:24:35;5.25;;;3.10;;
44762;SDS011;30483;49.576;6.036;2024-01-10T05:27:01;3.38;;;2.80;;
44762;SDS011;30483;49.576;6.036;2024-01-10T05:29:27;4.50;;;2.60;;
44762;SDS011;30483;49.576;6.036;2024-01-10T05:31:53;5.22;;;2.50;;
44762;SDS011;30483;49.576;6.036;2024-01-10T05:34:19;6.35;;;4.53;;
44762;SDS011;30483;49.576;6.036;2024-01-10T05:36:44;9.57;;;6.68;;
44762;SDS011;30483;49.576;6.036;2024-01-10T05:39:10;8.27;;;5.93;;
44762;SDS011;30483;49.576;6.036;2024-01-10T05:41:35;7.00;;;5.35;;
44762;SDS011;30483;49.576;6.036;2024-01-10T05:44:01;8.25;;;5.20;;
44762;SDS011;30483;49.576;6.036;2024-01-10T05:46:29;10.18;;;6.00;;
44762;SDS011;30483;49.576;6.036;2024-01-10T05:48:56;8.25;;;5.18;;
44762;SDS011;30483;49.576;6.036;2024-01-10T05:51:21;8.80;;;5.43;;
44762;SDS011;30483;49.576;6.036;2024-01-10T05:53:47;7.40;;;5.25;;
44762;SDS011;30483;49.576;6.036;2024-01-10T05:56:12;7.97;;;5.55;;
44762;SDS011;30483;49.576;6.036;2024-01-10T05:58:38;6.63;;;4.82;;
44762;SDS011;30483;49.576;6.036;2024-01-10T06:01:05;7.20;;;5.18;;
44762;SDS011;30483;49.576;6.036;2024-01-10T06:03:34;7.88;;;5.07;;
44762;SDS011;30483;49.576;6.036;2024-01-10T06:06:00;6.97;;;5.13;;
44762;SDS011;30483;49.576;6.036;2024-01-10T06:08:26;7.97;;;5.13;;
44762;SDS011;30483;49.576;6.036;2024-01-10T06:10:53;6.80;;;5.13;;
44762;SDS011;30483;49.576;6.036;2024-01-10T06:13:19;7.03;;;5.28;;
44762;SDS011;30483;49.576;6.036;2024-01-10T06:15:45;6.78;;;4.65;;
44762;SDS011;30483;49.576;6.036;2024-01-10T06:18:10;7.00;;;4.78;;
44762;SDS011;30483;49.576;6.036;2024-01-10T06:20:36;6.53;;;4.75;;
44762;SDS011;30483;49.576;6.036;2024-01-10T06:23:04;6.78;;;4.88;;
44762;SDS011;30483;49.576;6.036;2024-01-10T06:25:29;6.03;;;4.60;;
44762;SDS011;30483;49.576;6.036;2024-01-10T06:27:55;6.90;;;4.93;;
44762;SDS011;30483;49.576;6.036;2024-01-10T06:30:21;6.63;;;4.90;;
44762;SDS011;30483;49.576;6.036;2024-01-10T06:32:47;7.10;;;5.10;;
44762;SDS011;30483;49.576;6.036;2024-01-10T06:35:13;6.88;;;4.63;;
44762;SDS011;30483;49.576;6.036;2024-01-10T06:37:40;6.38;;;4.70;;
44762;SDS011;30483;49.576;6.036;2024-01-10T06:40:05;7.25;;;4.80;;
44762;SDS011;30483;49.576;6.036;2024-01-10T06:42:32;5.78;;;4.32;;
44762;SDS011;30483;49.576;6.036;2024-01-10T06:44:58;7.18;;;4.47;;
44762;SDS011;30483;49.576;6.036;2024-01-10T06:47:23;6.35;;;4.78;;
44762;SDS011;30483;49.576;6.036;2024-01-10T06:49:49;7.10;;;4.78;;
44762;SDS011;30483;49.576;6.036;2024-01-10T06:52:14;6.53;;;4.88;;
44762;SDS011;30483;49.576;6.036;2024-01-10T06:54:41;5.32;;;4.03;;
44762;SDS011;30483;49.576;6.036;2024-01-10T06:57:07;15.65;;;11.65;;
44762;SDS011;30483;49.576;6.036;2024-01-10T06:59:34;16.02;;;13.23;;
44762;SDS011;30483;49.576;6.036;2024-01-10T07:01:59;15.98;;;12.75;;
44762;SDS011;30483;49.576;6.036;2024-01-10T07:04:26;13.38;;;11.30;;
44762;SDS011;30483;49.576;6.036;2024-01-10T07:06:53;14.70;;;10.93;;
44762;SDS011;30483;49.576;6.036;2024-01-10T07:09:18;13.50;;;10.98;;
44762;SDS011;30483;49.576;6.036;2024-01-10T07:11:47;13.63;;;11.07;;
44762;SDS011;30483;49.576;6.036;2024-01-10T07:14:14;15.70;;;11.37;;
44762;SDS011;30483;49.576;6.036;2024-01-10T07:16:40;13.13;;;10.85;;
44762;SDS011;30483;49.576;6.036;2024-01-10T07:19:10;14.05;;;10.68;;
44762;SDS011;30483;49.576;6.036;2024-01-10T07:21:40;13.90;;;10.70;;
44762;SDS011;30483;49.576;6.036;2024-01-10T07:24:06;14.75;;;10.40;;
44762;SDS011;30483;49.576;6.036;2024-01-10T07:26:33;13.35;;;10.18;;
44762;SDS011;30483;49.576;6.036;2024-01-10T07:28:59;13.80;;;9.95;;
44762;SDS011;30483;49.576;6.036;2024-01-10T07:31:27;14.00;;;10.10;;
44762;SDS011;30483;49.576;6.036;2024-01-10T07:33:56;13.85;;;10.18;;
44762;SDS011;30483;49.576;6.036;2024-01-10T07:36:25;11.45;;;8.70;;
44762;SDS011;30483;49.576;6.036;2024-01-10T07:38:55;12.30;;;9.30;;
44762;SDS011;30483;49.576;6.036;2024-01-10T07:41:22;14.63;;;9.32;;
44762;SDS011;30483;49.576;6.036;2024-01-10T07:43:48;12.70;;;8.98;;
44762;SDS011;30483;49.576;6.036;2024-01-10T07:46:14;12.25;;;9.48;;
44762;SDS011;30483;49.576;6.036;2024-01-10T07:48:40;12.20;;;9.00;;
44762;SDS011;30483;49.576;6.036;2024-01-10T07:51:05;10.95;;;8.65;;
44762;SDS011;30483;49.576;6.036;2024-01-10T07:53:31;12.80;;;9.07;;
44762;SDS011;30483;49.576;6.036;2024-01-10T07:55:57;11.85;;;8.63;;
44762;SDS011;30483;49.576;6.036;2024-01-10T07:58:23;10.88;;;8.60;;
44762;SDS011;30483;49.576;6.036;2024-01-10T08:00:48;12.48;;;8.30;;
44762;SDS011;30483;49.576;6.036;2024-01-10T08:03:14;10.75;;;8.38;;
44762;SDS011;30483;49.576;6.036;2024-01-10T08:05:40;11.43;;;8.65;;
44762;SDS011;30483;49.576;6.036;2024-01-10T08:08:05;9.88;;;7.78;;
44762;SDS011;30483;49.576;6.036;2024-01-10T08:10:31;10.48;;;8.63;;
44762;SDS011;30483;49.576;6.036;2024-01-10T08:12:57;10.52;;;7.88;;
44762;SDS011;30483;49.576;6.036;2024-01-10T08:15:23;11.38;;;8.20;;
44762;SDS011;30483;49.576;6.036;2024-01-10T08:17:48;11.25;;;8.30;;
44762;SDS011;30483;49.576;6.036;2024-01-10T08:20:14;10.75;;;8.10;;
44762;SDS011;30483;49.576;6.036;2024-01-10T08:25:10;10.23;;;7.68;;
44762;SDS011;30483;49.576;6.036;2024-01-10T08:27:35;11.48;;;8.13;;
44762;SDS011;30483;49.576;6.036;2024-01-10T08:30:01;13.40;;;9.68;;
44762;SDS011;30483;49.576;6.036;2024-01-10T08:32:29;13.90;;;10.18;;
44762;SDS011;30483;49.576;6.036;2024-01-10T08:34:56;16.58;;;10.05;;
44762;SDS011;30483;49.576;6.036;2024-01-10T08:37:22;14.57;;;9.73;;
44762;SDS011;30483;49.576;6.036;2024-01-10T08:39:48;12.82;;;8.77;;
44762;SDS011;30483;49.576;6.036;2024-01-10T08:42:15;13.45;;;9.00;;
44762;SDS011;30483;49.576;6.036;2024-01-10T08:44:41;12.60;;;9.07;;
44762;SDS011;30483;49.576;6.036;2024-01-10T08:47:06;11.23;;;8.77;;
44762;SDS011;30483;49.576;6.036;2024-01-10T08:49:32;13.30;;;8.68;;
44762;SDS011;30483;49.576;6.036;2024-01-10T08:51:57;12.25;;;8.70;;
44762;SDS011;30483;49.576;6.036;2024-01-10T08:54:23;13.38;;;8.98;;
44762;SDS011;30483;49.576;6.036;2024-01-10T08:56:50;11.30;;;8.48;;
44762;SDS011;30483;49.576;6.036;2024-01-10T08:59:15;13.63;;;8.15;;
44762;SDS011;30483;49.576;6.036;2024-01-10T09:01:41;11.55;;;8.52;;
44762;SDS011;30483;49.576;6.036;2024-01-10T09:04:07;10.77;;;8.23;;
44762;SDS011;30483;49.576;6.036;2024-01-10T09:06:33;11.63;;;8.80;;
44762;SDS011;30483;49.576;6.036;2024-01-10T09:08:59;11.25;;;8.27;;
44762;SDS011;30483;49.576;6.036;2024-01-10T09:11:26;12.02;;;8.38;;
44762;SDS011;30483;49.576;6.036;2024-01-10T09:13:51;11.63;;;7.68;;
44762;SDS011;30483;49.576;6.036;2024-01-10T09:16:17;11.20;;;7.93;;
44762;SDS011;30483;49.576;6.036;2024-01-10T09:18:45;13.82;;;8.63;;
44762;SDS011;30483;49.576;6.036;2024-01-10T09:21:11;12.18;;;8.38;;
44762;SDS011;30483;49.576;6.036;2024-01-10T09:23:37;11.15;;;7.90;;
44762;SDS011;30483;49.576;6.036;2024-01-10T09:26:03;12.90;;;7.72;;
44762;SDS011;30483;49.576;6.036;2024-01-10T09:28:28;11.05;;;7.53;;
44762;SDS011;30483;49.576;6.036;2024-01-10T09:30:54;10.57;;;7.25;;
44762;SDS011;30483;49.576;6.036;2024-01-10T09:33:20;11.75;;;7.40;;
44762;SDS011;30483;49.576;6.036;2024-01-10T09:35:47;10.25;;;7.32;;
44762;SDS011;30483;49.576;6.036;2024-01-10T09:38:13;11.45;;;7.72;;
44762;SDS011;30483;49.576;6.036;2024-01-10T09:40:38;10.45;;;7.50;;
44762;SDS011;30483;49.576;6.036;2024-01-10T09:43:05;10.85;;;7.57;;
44762;SDS011;30483;49.576;6.036;2024-01-10T09:45:34;9.43;;;7.28;;
44762;SDS011;30483;49.576;6.036;2024-01-10T09:48:01;11.30;;;7.65;;
44762;SDS011;30483;49.576;6.036;2024-01-10T09:50:27;10.75;;;7.50;;
44762;SDS011;30483;49.576;6.036;2024-01-10T09:52:54;9.40;;;7.28;;
44762;SDS011;30483;49.576;6.036;2024-01-10T09:55:33;10.63;;;7.53;;
44762;SDS011;30483;49.576;6.036;2024-01-10T09:58:04;8.70;;;6.82;;
44762;SDS011;30483;49.576;6.036;2024-01-10T10:00:30;9.85;;;6.60;;
44762;SDS011;30483;49.576;6.036;2024-01-10T10:02:58;9.15;;;6.60;;
44762;SDS011;30483;49.576;6.036;2024-01-10T10:05:24;10.15;;;6.80;;
44762;SDS011;30483;49.576;6.036;2024-01-10T10:07:51;9.40;;;6.85;;
44762;SDS011;30483;49.576;6.036;2024-01-10T10:10:18;10.55;;;7.25;;
44762;SDS011;30483;49.576;6.036;2024-01-10T10:12:44;9.65;;;6.55;;
44762;SDS011;30483;49.576;6.036;2024-01-10T10:15:19;9.13;;;6.50;;
44762;SDS011;30483;49.576;6.036;2024-01-10T10:17:46;9.93;;;6.75;;
44762;SDS011;30483;49.576;6.036;2024-01-10T10:23:05;12.25;;;6.82;;
44762;SDS011;30483;49.576;6.036;2024-01-10T10:27:59;10.27;;;7.00;;
44762;SDS011;30483;49.576;6.036;2024-01-10T10:30:25;9.15;;;6.60;;
44762;SDS011;30483;49.576;6.036;2024-01-10T10:32:51;10.40;;;6.97;;
44762;SDS011;30483;49.576;6.036;2024-01-10T10:35:18;11.75;;;7.00;;
44762;SDS011;30483;49.576;6.036;2024-01-10T10:37:45;10.23;;;7.20;;
44762;SDS011;30483;49.576;6.036;2024-01-10T10:40:11;9.00;;;6.70;;
44762;SDS011;30483;49.576;6.036;2024-01-10T10:42:38;8.55;;;6.40;;
44762;SDS011;30483;49.576;6.036;2024-01-10T10:45:13;9.90;;;6.75;;
44762;SDS011;30483;49.576;6.036;2024-01-10T10:47:41;10.75;;;6.78;;
44762;SDS011;30483;49.576;6.036;2024-01-10T10:50:09;9.02;;;6.72;;
44762;SDS011;30483;49.576;6.036;2024-01-10T10:52:42;10.35;;;6.45;;
44762;SDS011;30483;49.576;6.036;2024-01-10T10:55:12;10.85;;;6.53;;
44762;SDS011;30483;49.576;6.036;2024-01-10T10:57:46;8.95;;;6.30;;
44762;SDS011;30483;49.576;6.036;2024-01-10T11:02:43;13.23;;;6.65;;
44762;SDS011;30483;49.576;6.036;2024-01-10T11:05:10;7.90;;;6.00;;
44762;SDS011;30483;49.576;6.036;2024-01-10T11:07:40;8.77;;;6.47;;
44762;SDS011;30483;49.576;6.036;2024-01-10T11:10:11;12.05;;;6.53;;
44762;SDS011;30483;49.576;6.036;2024-01-10T11:13:00;7.38;;;5.32;;
44762;SDS011;30483;49.576;6.036;2024-01-10T11:19:00;8.50;;;5.95;;
44762;SDS011;30483;49.576;6.036;2024-01-10T11:24:40;8.95;;;6.10;;
44762;SDS011;30483;49.576;6.036;2024-01-10T11:27:07;8.50;;;5.90;;
44762;SDS011;30483;49.576;6.036;2024-01-10T11:29:37;6.72;;;4.10;;
44762;SDS011;30483;49.576;6.036;2024-01-10T11:32:04;7.45;;;4.03;;
44762;SDS011;30483;49.576;6.036;2024-01-10T11:37:39;8.70;;;4.32;;
44762;SDS011;30483;49.576;6.036;2024-01-10T11:40:08;8.13;;;5.40;;
44762;SDS011;30483;49.576;6.036;2024-01-10T11:42:41;10.00;;;7.43;;
44762;SDS011;30483;49.576;6.036;2024-01-10T11:45:08;9.27;;;6.15;;
44762;SDS011;30483;49.576;6.036;2024-01-10T11:47:33;11.80;;;6.40;;
44762;SDS011;30483;49.576;6.036;2024-01-10T11:50:01;9.60;;;5.63;;
44762;SDS011;30483;49.576;6.036;2024-01-10T11:52:33;9.25;;;5.90;;
44762;SDS011;30483;49.576;6.036;2024-01-10T11:55:01;10.10;;;5.57;;
44762;SDS011;30483;49.576;6.036;2024-01-10T11:57:28;8.65;;;5.70;;
44762;SDS011;30483;49.576;6.036;2024-01-10T11:59:57;8.10;;;5.40;;
44762;SDS011;30483;49.576;6.036;2024-01-10T12:02:25;7.88;;;5.53;;
44762;SDS011;30483;49.576;6.036;2024-01-10T12:04:52;8.57;;;5.80;;
44762;SDS011;30483;49.576;6.036;2024-01-10T12:07:18;8.68;;;5.60;;
44762;SDS011;30483;49.576;6.036;2024-01-10T12:09:45;10.73;;;5.80;;
44762;SDS011;30483;49.576;6.036;2024-01-10T12:12:12;7.00;;;5.22;;
44762;SDS011;30483;49.576;6.036;2024-01-10T12:14:38;10.95;;;5.88;;
44762;SDS011;30483;49.576;6.036;2024-01-10T12:17:05;8.73;;;5.45;;
44762;SDS011;30483;49.576;6.036;2024-01-10T12:19:31;7.72;;;5.63;;
44762;SDS011;30483;49.576;6.036;2024-01-10T12:21:57;8.55;;;5.75;;
44762;SDS011;30483;49.576;6.036;2024-01-10T12:24:22;7.95;;;5.35;;
44762;SDS011;30483;49.576;6.036;2024-01-10T12:26:48;6.82;;;5.10;;
44762;SDS011;30483;49.576;6.036;2024-01-10T12:29:18;7.40;;;5.18;;
44762;SDS011;30483;49.576;6.036;2024-01-10T12:31:47;8.18;;;5.28;;
44762;SDS011;30483;49.576;6.036;2024-01-10T12:34:13;8.00;;;5.50;;
44762;SDS011;30483;49.576;6.036;2024-01-10T12:36:40;6.90;;;5.40;;
44762;SDS011;30483;49.576;6.036;2024-01-10T12:39:06;7.18;;;5.35;;
44762;SDS011;30483;49.576;6.036;2024-01-10T12:41:32;7.28;;;5.10;;
44762;SDS011;30483;49.576;6.036;2024-01-10T12:43:59;6.90;;;5.18;;
44762;SDS011;30483;49.576;6.036;2024-01-10T12:46:28;7.45;;;5.15;;
44762;SDS011;30483;49.576;6.036;2024-01-10T12:49:02;8.20;;;5.53;;
44762;SDS011;30483;49.576;6.036;2024-01-10T12:51:30;9.00;;;5.70;;
44762;SDS011;30483;49.576;6.036;2024-01-10T12:53:57;7.78;;;5.32;;
44762;SDS011;30483;49.576;6.036;2024-01-10T12:56:24;9.05;;;5.57;;
44762;SDS011;30483;49.576;6.036;2024-01-10T12:58:50;8.93;;;5.50;;
44762;SDS011;30483;49.576;6.036;2024-01-10T13:01:16;7.90;;;5.20;;
44762;SDS011;30483;49.576;6.036;2024-01-10T13:03:41;8.50;;;5.57;;
44762;SDS011;30483;49.576;6.036;2024-01-10T13:06:07;7.32;;;4.80;;
44762;SDS011;30483;49.576;6.036;2024-01-10T13:08:34;7.65;;;5.07;;
44762;SDS011;30483;49.576;6.036;2024-01-10T13:11:01;8.40;;;5.15;;
44762;SDS011;30483;49.576;6.036;2024-01-10T13:13:33;8.40;;;5.70;;
44762;SDS011;30483;49.576;6.036;2024-01-10T13:15:58;6.65;;;4.90;;
44762;SDS011;30483;49.576;6.036;2024-01-10T13:18:25;7.40;;;4.80;;
44762;SDS011;30483;49.576;6.036;2024-01-10T13:20:53;6.88;;;4.68;;
44762;SDS011;30483;49.576;6.036;2024-01-10T13:23:19;7.70;;;5.13;;
44762;SDS011;30483;49.576;6.036;2024-01-10T13:25:47;7.82;;;5.00;;
44762;SDS011;30483;49.576;6.036;2024-01-10T13:28:13;8.15;;;4.97;;
44762;SDS011;30483;49.576;6.036;2024-01-10T13:30:39;7.32;;;5.00;;
44762;SDS011;30483;49.576;6.036;2024-01-10T13:33:08;6.97;;;4.80;;
44762;SDS011;30483;49.576;6.036;2024-01-10T13:35:34;6.75;;;4.80;;
44762;SDS011;30483;49.576;6.036;2024-01-10T13:38:03;6.95;;;5.25;;
44762;SDS011;30483;49.576;6.036;2024-01-10T13:40:30;7.32;;;5.03;;
44762;SDS011;30483;49.576;6.036;2024-01-10T13:42:59;8.65;;;5.40;;
44762;SDS011;30483;49.576;6.036;2024-01-10T13:45:27;7.72;;;5.00;;
44762;SDS011;30483;49.576;6.036;2024-01-10T13:47:53;7.05;;;5.32;;
44762;SDS011;30483;49.576;6.036;2024-01-10T13:50:19;7.22;;;4.85;;
44762;SDS011;30483;49.576;6.036;2024-01-10T13:52:44;8.43;;;5.10;;
44762;SDS011;30483;49.576;6.036;2024-01-10T13:55:10;7.95;;;5.47;;
44762;SDS011;30483;49.576;6.036;2024-01-10T13:57:36;6.60;;;5.25;;
44762;SDS011;30483;49.576;6.036;2024-01-10T14:00:02;7.05;;;5.45;;
44762;SDS011;30483;49.576;6.036;2024-01-10T14:02:28;7.90;;;5.38;;
44762;SDS011;30483;49.576;6.036;2024-01-10T14:04:54;8.10;;;5.75;;
44762;SDS011;30483;49.576;6.036;2024-01-10T14:07:22;7.88;;;5.68;;
44762;SDS011;30483;49.576;6.036;2024-01-10T14:09:48;6.88;;;4.95;;
44762;SDS011;30483;49.576;6.036;2024-01-10T14:12:13;6.63;;;4.85;;
44762;SDS011;30483;49.576;6.036;2024-01-10T14:14:39;7.38;;;5.32;;
44762;SDS011;30483;49.576;6.036;2024-01-10T14:17:05;6.22;;;4.93;;
44762;SDS011;30483;49.576;6.036;2024-01-10T14:19:31;8.43;;;5.30;;
44762;SDS011;30483;49.576;6.036;2024-01-10T14:21:57;8.10;;;5.13;;
44762;SDS011;30483;49.576;6.036;2024-01-10T14:27:45;6.80;;;5.15;;
44762;SDS011;30483;49.576;6.036;2024-01-10T14:30:11;7.25;;;5.03;;
44762;SDS011;30483;49.576;6.036;2024-01-10T14:32:39;7.20;;;5.53;;
44762;SDS011;30483;49.576;6.036;2024-01-10T14:35:04;7.93;;;5.35;;
44762;SDS011;30483;49.576;6.036;2024-01-10T14:37:30;6.47;;;4.93;;
44762;SDS011;30483;49.576;6.036;2024-01-10T14:39:56;6.15;;;4.88;;
44762;SDS011;30483;49.576;6.036;2024-01-10T14:42:23;8.23;;;5.38;;
44762;SDS011;30483;49.576;6.036;2024-01-10T14:44:48;6.70;;;5.07;;
44762;SDS011;30483;49.576;6.036;2024-01-10T14:47:14;8.32;;;5.25;;
44762;SDS011;30483;49.576;6.036;2024-01-10T14:49:39;6.95;;;5.30;;
44762;SDS011;30483;49.576;6.036;2024-01-10T14:52:06;8.10;;;5.72;;
44762;SDS011;30483;49.576;6.036;2024-01-10T14:54:31;6.55;;;5.20;;
44762;SDS011;30483;49.576;6.036;2024-01-10T14:56:57;6.60;;;4.80;;
44762;SDS011;30483;49.576;6.036;2024-01-10T14:59:23;6.97;;;5.30;;
44762;SDS011;30483;49.576;6.036;2024-01-10T15:01:48;6.03;;;4.88;;
44762;SDS011;30483;49.576;6.036;2024-01-10T15:04:14;6.85;;;5.18;;
44762;SDS011;30483;49.576;6.036;2024-01-10T15:06:43;6.55;;;4.82;;
44762;SDS011;30483;49.576;6.036;2024-01-10T15:09:13;7.30;;;5.35;;
44762;SDS011;30483;49.576;6.036;2024-01-10T15:11:39;6.28;;;5.00;;
44762;SDS011;30483;49.576;6.036;2024-01-10T15:14:06;8.75;;;5.32;;
44762;SDS011;30483;49.576;6.036;2024-01-10T15:16:33;7.60;;;5.30;;
44762;SDS011;30483;49.576;6.036;2024-01-10T15:18:58;7.00;;;5.00;;
44762;SDS011;30483;49.576;6.036;2024-01-10T15:21:25;8.98;;;5.63;;
44762;SDS011;30483;49.576;6.036;2024-01-10T15:23:51;7.63;;;5.25;;
44762;SDS011;30483;49.576;6.036;2024-01-10T15:26:18;6.28;;;4.97;;
44762;SDS011;30483;49.576;6.036;2024-01-10T15:28:44;7.20;;;5.32;;
44762;SDS011;30483;49.576;6.036;2024-01-10T15:31:20;6.88;;;5.32;;
44762;SDS011;30483;49.576;6.036;2024-01-10T15:33:46;8.02;;;5.20;;
44762;SDS011;30483;49.576;6.036;2024-01-10T15:36:11;6.40;;;4.80;;
44762;SDS011;30483;49.576;6.036;2024-01-10T15:38:39;7.28;;;5.45;;
44762;SDS011;30483;49.576;6.036;2024-01-10T15:41:06;6.55;;;5.13;;
44762;SDS011;30483;49.576;6.036;2024-01-10T15:43:33;6.93;;;5.10;;
44762;SDS011;30483;49.576;6.036;2024-01-10T15:45:59;8.90;;;6.32;;
44762;SDS011;30483;49.576;6.036;2024-01-10T15:48:25;12.90;;;7.15;;
44762;SDS011;30483;49.576;6.036;2024-01-10T15:50:52;15.75;;;10.50;;
44762;SDS011;30483;49.576;6.036;2024-01-10T15:53:19;19.98;;;13.63;;
44762;SDS011;30483;49.576;6.036;2024-01-10T15:55:45;24.27;;;12.88;;
44762;SDS011;30483;49.576;6.036;2024-01-10T15:58:10;20.13;;;11.82;;
44762;SDS011;30483;49.576;6.036;2024-01-10T16:00:36;18.25;;;11.10;;
44762;SDS011;30483;49.576;6.036;2024-01-10T16:03:02;18.13;;;11.18;;
44762;SDS011;30483;49.576;6.036;2024-01-10T16:05:29;15.82;;;10.23;;
44762;SDS011;30483;49.576;6.036;2024-01-10T16:07:54;17.25;;;10.30;;
44762;SDS011;30483;49.576;6.036;2024-01-10T16:10:20;17.05;;;10.55;;
44762;SDS011;30483;49.576;6.036;2024-01-10T16:12:46;17.25;;;10.23;;
44762;SDS011;30483;49.576;6.036;2024-01-10T16:15:12;17.00;;;10.10;;
44762;SDS011;30483;49.576;6.036;2024-01-10T16:17:38;15.60;;;9.88;;
44762;SDS011;30483;49.576;6.036;2024-01-10T16:20:04;14.95;;;9.77;;
44762;SDS011;30483;49.576;6.036;2024-01-10T16:22:31;15.68;;;9.38;;
44762;SDS011;30483;49.576;6.036;2024-01-10T16:25:00;14.38;;;9.63;;
44762;SDS011;30483;49.576;6.036;2024-01-10T16:27:25;12.52;;;9.13;;
44762;SDS011;30483;49.576;6.036;2024-01-10T16:29:52;12.60;;;9.05;;
44762;SDS011;30483;49.576;6.036;2024-01-10T16:32:17;12.48;;;9.00;;
44762;SDS011;30483;49.576;6.036;2024-01-10T16:34:44;13.15;;;8.50;;
44762;SDS011;30483;49.576;6.036;2024-01-10T16:37:11;15.27;;;9.50;;
44762;SDS011;30483;49.576;6.036;2024-01-10T16:39:38;13.95;;;8.80;;
44762;SDS011;30483;49.576;6.036;2024-01-10T16:42:05;12.65;;;8.43;;
44762;SDS011;30483;49.576;6.036;2024-01-10T16:44:31;12.05;;;8.30;;
44762;SDS011;30483;49.576;6.036;2024-01-10T16:46:57;13.35;;;8.35;;
44762;SDS011;30483;49.576;6.036;2024-01-10T16:49:22;13.75;;;8.52;;
44762;SDS011;30483;49.576;6.036;2024-01-10T16:51:48;19.98;;;10.88;;
44762;SDS011;30483;49.576;6.036;2024-01-10T16:54:15;20.00;;;12.80;;
44762;SDS011;30483;49.576;6.036;2024-01-10T16:56:41;17.00;;;11.40;;
44762;SDS011;30483;49.576;6.036;2024-01-10T16:59:06;16.85;;;10.73;;
44762;SDS011;30483;49.576;6.036;2024-01-10T17:01:32;14.98;;;10.43;;
44762;SDS011;30483;49.576;6.036;2024-01-10T17:03:57;15.70;;;10.50;;
44762;SDS011;30483;49.576;6.036;2024-01-10T17:06:23;13.27;;;9.48;;
44762;SDS011;30483;49.576;6.036;2024-01-10T17:08:48;13.68;;;9.55;;
44762;SDS011;30483;49.576;6.036;2024-01-10T17:11:14;14.50;;;9.63;;
44762;SDS011;30483;49.576;6.036;2024-01-10T17:13:41;14.75;;;9.63;;
44762;SDS011;30483;49.576;6.036;2024-01-10T17:16:07;14.77;;;9.88;;
44762;SDS011;30483;49.576;6.036;2024-01-10T17:18:32;13.18;;;8.65;;
44762;SDS011;30483;49.576;6.036;2024-01-10T17:20:58;12.80;;;8.80;;
44762;SDS011;30483;49.576;6.036;2024-01-10T17:23:23;13.60;;;8.65;;
44762;SDS011;30483;49.576;6.036;2024-01-10T17:25:49;11.85;;;8.57;;
44762;SDS011;30483;49.576;6.036;2024-01-10T17:28:15;15.55;;;8.65;;
44762;SDS011;30483;49.576;6.036;2024-01-10T17:30:40;11.48;;;8.27;;
44762;SDS011;30483;49.576;6.036;2024-01-10T17:33:06;12.88;;;8.48;;
44762;SDS011;30483;49.576;6.036;2024-01-10T17:35:34;12.43;;;8.20;;
44762;SDS011;30483;49.576;6.036;2024-01-10T17:38:00;12.55;;;8.00;;
44762;SDS011;30483;49.576;6.036;2024-01-10T17:40:26;10.98;;;7.57;;
44762;SDS011;30483;49.576;6.036;2024-01-10T17:42:51;11.95;;;7.97;;
44762;SDS011;30483;49.576;6.036;2024-01-10T17:45:17;11.73;;;7.72;;
44762;SDS011;30483;49.576;6.036;2024-01-10T17:47:43;11.80;;;7.80;;
44762;SDS011;30483;49.576;6.036;2024-01-10T17:50:09;10.13;;;7.65;;
44762;SDS011;30483;49.576;6.036;2024-01-10T17:52:35;9.90;;;7.40;;
44762;SDS011;30483;49.576;6.036;2024-01-10T17:55:01;10.15;;;7.50;;
44762;SDS011;30483;49.576;6.036;2024-01-10T17:57:26;10.05;;;7.38;;
44762;SDS011;30483;49.576;6.036;2024-01-10T17:59:52;9.23;;;6.43;;
44762;SDS011;30483;49.576;6.036;2024-01-10T18:02:18;10.32;;;7.25;;
44762;SDS011;30483;49.576;6.036;2024-01-10T18:04:44;10.65;;;7.18;;
44762;SDS011;30483;49.576;6.036;2024-01-10T18:07:09;9.60;;;6.93;;
44762;SDS011;30483;49.576;6.036;2024-01-10T18:09:35;9.73;;;7.18;;
44762;SDS011;30483;49.576;6.036;2024-01-10T18:12:00;9.52;;;7.45;;
44762;SDS011;30483;49.576;6.036;2024-01-10T18:14:27;10.75;;;7.18;;
44762;SDS011;30483;49.576;6.036;2024-01-10T18:16:53;10.13;;;7.07;;
44762;SDS011;30483;49.576;6.036;2024-01-10T18:19:18;10.18;;;7.18;;
44762;SDS011;30483;49.576;6.036;2024-01-10T18:21:44;10.60;;;7.25;;
44762;SDS011;30483;49.576;6.036;2024-01-10T18:24:10;10.57;;;7.45;;
44762;SDS011;30483;49.576;6.036;2024-01-10T18:26:35;12.07;;;7.78;;
44762;SDS011;30483;49.576;6.036;2024-01-10T18:29:01;9.55;;;6.72;;
44762;SDS011;30483;49.576;6.036;2024-01-10T18:31:27;8.15;;;6.25;;
44762;SDS011;30483;49.576;6.036;2024-01-10T18:33:52;10.20;;;7.10;;
44762;SDS011;30483;49.576;6.036;2024-01-10T18:36:18;9.70;;;6.75;;
44762;SDS011;30483;49.576;6.036;2024-01-10T18:38:44;9.20;;;6.15;;
44762;SDS011;30483;49.576;6.036;2024-01-10T18:41:09;8.93;;;6.00;;
44762;SDS011;30483;49.576;6.036;2024-01-10T18:43:35;8.07;;;6.28;;
44762;SDS011;30483;49.576;6.036;2024-01-10T18:46:00;8.20;;;5.93;;
44762;SDS011;30483;49.576;6.036;2024-01-10T18:48:26;8.88;;;6.28;;
44762;SDS011;30483;49.576;6.036;2024-01-10T18:50:52;7.88;;;6.03;;
44762;SDS011;30483;49.576;6.036;2024-01-10T18:53:18;8.48;;;6.22;;
44762;SDS011;30483;49.576;6.036;2024-01-10T18:55:45;8.63;;;6.07;;
44762;SDS011;30483;49.576;6.036;2024-01-10T18:58:12;8.00;;;6.10;;
44762;SDS011;30483;49.576;6.036;2024-01-10T19:00:38;9.57;;;6.03;;